Time;durP1;ratioP1;P1;durP2;ratioP2;P2;SDS_P1;SDS_P2;PMS_P1;PMS_P2;Temp;Humidity;BMP_temperature;BMP_pressure;BME280_temperature;BME280_humidity;BME280_pressure;Samples;Min_cycle;Max_cycle;Signal;HPM_P1;HPM_P2
2022/08/08 00:00:07;;;;;;;10.40;7.30;;;;;;;18.04;96.98;99919.99;106823;1281;23269;-59
2022/08/08 00:03:00;;;;;;;9.40;6.50;;;;;;;18.06;96.92;99921.77;106688;1281;140412;-58
2022/08/08 00:06:05;;;;;;;9.70;6.90;;;;;;;18.05;97.07;99924.94;106826;1281;23527;-59
2022/08/08 00:08:32;;;;;;;14.10;6.90;;;;;;;18.05;97.03;99928.52;106745;1281;138790;-58
2022/08/08 00:11:08;;;;;;;6.90;5.30;;;;;;;18.05;97.12;99929.79;106953;1281;22522;-60
2022/08/08 00:14:02;;;;;;;10.00;6.40;;;;;;;18.06;97.11;99931.59;106797;1281;140116;-58
2022/08/08 00:17:07;;;;;;;10.20;5.60;;;;;;;18.06;97.27;99934.04;106884;1281;23479;-58
2022/08/08 00:20:02;;;;;;;9.20;6.50;;;;;;;18.06;97.06;99935.17;106698;1281;140007;-58
2022/08/08 00:22:47;;;;;;;8.70;6.10;;;;;;;18.04;97.15;99931.79;107104;1274;23589;-58
2022/08/08 00:25:32;;;;;;;8.90;6.70;;;;;;;18.03;97.11;99931.92;107221;1276;22398;-59
2022/08/08 00:28:18;;;;;;;7.10;6.10;;;;;;;18.03;97.22;99929.37;107253;1278;22460;-58
2022/08/08 00:31:23;;;;;;;9.70;6.90;;;;;;;18.04;97.17;99924.02;107282;1274;22411;-59
2022/08/08 00:38:01;;;;;;;10.60;6.30;;;;;;;18.08;97.25;99924.23;107312;1274;22482;-59
2022/08/08 00:40:28;;;;;;;10.30;6.20;;;;;;;18.08;97.17;99922.04;107530;1274;22522;-59
2022/08/08 00:43:46;;;;;;;12.00;6.90;;;;;;;18.08;97.18;99923.19;107391;1276;23724;-59
2022/08/08 00:46:48;;;;;;;9.10;6.40;;;;;;;18.07;97.24;99922.70;107381;1274;23547;-59
2022/08/08 00:49:27;;;;;;;11.00;6.40;;;;;;;18.05;97.03;99923.61;107422;1276;22474;-59
2022/08/08 00:52:03;;;;;;;10.60;6.40;;;;;;;18.01;97.05;99919.37;107258;1274;138209;-59
2022/08/08 00:55:09;;;;;;;10.70;6.50;;;;;;;18.00;97.05;99922.59;107224;1274;22436;-59
2022/08/08 00:58:15;;;;;;;11.50;6.60;;;;;;;18.00;97.16;99931.36;106657;1281;138109;-59
2022/08/08 01:00:51;;;;;;;13.30;6.50;;;;;;;17.97;96.93;99927.76;106839;1281;24976;-58
2022/08/08 01:03:28;;;;;;;12.60;7.40;;;;;;;17.95;97.08;99927.13;106673;1281;139687;-59
2022/08/08 01:06:55;;;;;;;12.00;6.60;;;;;;;17.95;97.14;99925.30;106997;1281;23336;-59
2022/08/08 01:09:34;;;;;;;7.70;6.50;;;;;;;17.93;97.05;99924.73;106234;1287;138503;-59
2022/08/08 01:12:52;;;;;;;8.50;6.50;;;;;;;17.85;96.88;99920.20;106373;1287;23657;-59
2022/08/08 01:15:49;;;;;;;10.70;7.20;;;;;;;17.83;97.02;99919.68;106281;1287;139536;-59
2022/08/08 01:18:23;;;;;;;14.70;7.60;;;;;;;17.80;97.17;99917.23;106217;1287;22473;-59
2022/08/08 01:21:10;;;;;;;12.00;7.80;;;;;;;17.76;97.03;99918.88;106228;1288;138478;-59
2022/08/08 01:23:54;;;;;;;16.10;8.40;;;;;;;17.72;97.09;99917.52;106329;1287;23046;-59
2022/08/08 01:26:51;;;;;;;15.30;7.60;;;;;;;17.68;97.25;99918.45;106150;1287;138680;-59
2022/08/08 01:29:40;;;;;;;13.60;8.20;;;;;;;17.65;97.38;99914.23;106304;1288;23450;-59
2022/08/08 01:32:50;;;;;;;11.00;8.40;;;;;;;17.61;97.57;99914.36;106273;1287;140225;-59
2022/08/08 01:35:22;;;;;;;10.30;7.50;;;;;;;17.59;98.00;99917.44;106842;1281;23427;-59
2022/08/08 01:38:44;;;;;;;11.00;8.30;;;;;;;17.55;98.12;99917.08;106642;1281;139189;-58
2022/08/08 01:41:52;;;;;;;10.30;8.10;;;;;;;17.54;98.29;99922.44;103638;1287;28010;-59
2022/08/08 01:44:40;;;;;;;15.80;8.20;;;;;;;17.51;98.48;99925.23;102650;1289;140612;-59
2022/08/08 01:47:48;;;;;;;12.30;8.90;;;;;;;17.50;98.68;99925.13;106532;1282;22450;-58
2022/08/08 01:50:43;;;;;;;12.20;9.10;;;;;;;17.46;98.67;99930.08;106515;1282;139332;-59
2022/08/08 01:53:24;;;;;;;13.10;9.00;;;;;;;17.41;98.72;99926.68;106798;1284;22466;-59
2022/08/08 01:56:24;;;;;;;16.30;9.50;;;;;;;17.39;99.07;99925.60;106612;1284;142105;-59
2022/08/08 01:59:24;;;;;;;12.80;8.80;;;;;;;17.39;99.17;99928.85;106426;1284;22418;-59
2022/08/08 02:02:21;;;;;;;17.60;9.80;;;;;;;17.37;99.34;99929.31;106525;1284;139057;-58
2022/08/08 02:05:58;;;;;;;10.60;8.90;;;;;;;17.37;99.51;99931.84;106448;1284;25555;-59
2022/08/08 02:08:32;;;;;;;14.20;8.70;;;;;;;17.37;99.78;99928.42;106069;1288;139565;-57
2022/08/08 02:11:25;;;;;;;15.50;9.50;;;;;;;17.37;99.76;99926.29;106297;1287;22512;-57
2022/08/08 02:14:26;;;;;;;15.60;9.20;;;;;;;17.35;99.69;99927.45;106599;1282;139134;-57
2022/08/08 02:16:57;;;;;;;14.20;8.90;;;;;;;17.33;99.80;99928.69;106788;1280;22410;-57
2022/08/08 02:19:46;;;;;;;14.20;9.70;;;;;;;17.33;99.92;99931.21;106834;1280;22557;-57
2022/08/08 02:23:12;;;;;;;18.50;9.50;;;;;;;17.33;99.93;99931.27;106853;1281;22543;-57
2022/08/08 02:26:22;;;;;;;18.90;10.20;;;;;;;17.31;99.86;99927.00;106806;1281;138523;-58
2022/08/08 02:29:05;;;;;;;13.00;8.70;;;;;;;17.29;99.92;99930.35;106294;1283;24023;-58
2022/08/08 02:32:06;;;;;;;17.30;9.30;;;;;;;17.26;99.94;99932.14;106524;1283;22647;-59
2022/08/08 02:34:43;;;;;;;10.70;8.50;;;;;;;17.24;100.00;99934.74;106323;1284;22460;-58
2022/08/08 02:37:36;;;;;;;11.00;8.90;;;;;;;17.23;100.00;99931.39;106518;1283;22414;-59
2022/08/08 02:40:35;;;;;;;13.30;9.40;;;;;;;17.23;100.00;99938.16;106595;1282;23255;-58
2022/08/08 02:43:29;;;;;;;17.40;10.10;;;;;;;17.23;100.00;99936.07;106812;1281;22556;-58
2022/08/08 02:46:41;;;;;;;9.50;8.30;;;;;;;17.20;100.00;99938.68;106764;1281;22592;-58
2022/08/08 02:49:34;;;;;;;10.00;9.00;;;;;;;17.20;100.00;99936.54;106954;1281;23292;-59
2022/08/08 02:52:43;;;;;;;13.50;9.10;;;;;;;17.19;100.00;99934.95;106837;1281;22499;-59
2022/08/08 02:55:41;;;;;;;13.60;7.90;;;;;;;17.17;100.00;99938.16;106960;1280;22411;-59
2022/08/08 02:58:12;;;;;;;14.00;9.00;;;;;;;17.19;100.00;99940.56;106861;1281;22576;-60
2022/08/08 03:01:19;;;;;;;12.30;9.90;;;;;;;17.21;100.00;99937.91;107025;1281;23453;-58
2022/08/08 03:04:05;;;;;;;10.60;9.40;;;;;;;17.19;100.00;99941.95;106617;1281;138727;-59
2022/08/08 03:07:24;;;;;;;15.20;9.40;;;;;;;17.22;100.00;99946.33;107353;1274;23089;-59
2022/08/08 03:10:25;;;;;;;16.30;9.20;;;;;;;17.19;100.00;99947.68;107370;1276;22437;-59
2022/08/08 03:13:20;;;;;;;11.70;9.70;;;;;;;17.19;100.00;99954.06;107215;1276;22848;-58
2022/08/08 03:16:53;;;;;;;13.30;10.20;;;;;;;17.19;100.00;99953.29;107274;1275;24456;-58
2022/08/08 03:19:42;;;;;;;14.30;10.30;;;;;;;17.17;100.00;99951.95;106791;1280;22425;-58
2022/08/08 03:22:18;;;;;;;13.40;9.50;;;;;;;17.15;100.00;99953.36;107079;1280;22453;-59
2022/08/08 03:25:05;;;;;;;18.40;10.20;;;;;;;17.14;100.00;99953.14;106904;1281;22492;-59
2022/08/08 03:27:58;;;;;;;10.90;8.90;;;;;;;17.11;100.00;99953.55;106860;1283;139348;-58
2022/08/08 03:30:28;;;;;;;11.60;8.60;;;;;;;17.13;100.00;99952.98;107110;1280;22560;-58
2022/08/08 03:36:03;;;;;;;14.20;9.40;;;;;;;17.15;100.00;99953.80;107012;1280;22904;-59
2022/08/08 03:38:36;;;;;;;12.30;9.20;;;;;;;17.18;100.00;99956.60;106668;1280;138587;-59
2022/08/08 03:41:31;;;;;;;11.80;9.20;;;;;;;17.18;100.00;99951.66;106908;1280;22483;-59
2022/08/08 03:44:18;;;;;;;9.60;8.40;;;;;;;17.20;100.00;99954.05;106767;1280;140200;-59
2022/08/08 03:46:51;;;;;;;14.30;8.70;;;;;;;17.19;100.00;99954.61;106880;1280;22504;-59
2022/08/08 03:49:22;;;;;;;11.70;10.00;;;;;;;17.19;100.00;99959.45;106796;1281;23296;-60
2022/08/08 03:52:09;;;;;;;13.70;8.90;;;;;;;17.19;100.00;99966.89;106830;1280;25274;-59
2022/08/08 03:54:43;;;;;;;18.50;10.20;;;;;;;17.18;100.00;99970.64;106888;1280;22476;-59
2022/08/08 03:57:30;;;;;;;12.00;9.50;;;;;;;17.18;100.00;99973.30;107179;1276;139176;-59
2022/08/08 04:00:19;;;;;;;12.20;9.90;;;;;;;17.15;100.00;99966.46;107099;1276;22450;-59
2022/08/08 04:03:00;;;;;;;13.70;8.80;;;;;;;17.15;100.00;99967.84;107289;1274;138451;-59
2022/08/08 04:05:31;;;;;;;17.30;9.20;;;;;;;17.17;100.00;99972.82;107249;1274;22401;-59
2022/08/08 04:08:04;;;;;;;11.00;8.90;;;;;;;17.16;100.00;99975.77;107227;1276;139418;-60
2022/08/08 04:10:33;;;;;;;15.40;9.00;;;;;;;17.15;100.00;99974.50;107330;1274;22523;-59
2022/08/08 04:13:02;;;;;;;14.10;9.00;;;;;;;17.14;100.00;99977.77;107340;1276;22577;-59
2022/08/08 04:15:46;;;;;;;14.90;8.80;;;;;;;17.15;100.00;99973.11;107243;1276;138992;-59
2022/08/08 04:18:31;;;;;;;10.70;8.20;;;;;;;17.15;100.00;99972.45;107300;1275;22443;-59
2022/08/08 04:20:58;;;;;;;16.30;8.90;;;;;;;17.18;100.00;99975.23;107244;1275;139367;-59
2022/08/08 04:23:27;;;;;;;15.20;8.40;;;;;;;17.21;100.00;99976.80;107424;1274;23421;-59
2022/08/08 04:26:14;;;;;;;15.20;8.60;;;;;;;17.22;100.00;99978.27;106441;1274;1157158;-60
2022/08/08 04:30:48;;;;;;;16.40;10.30;;;;;;;17.28;100.00;99985.44;100916;1309;546222;-59
2022/08/08 04:33:15;;;;;;;12.90;9.10;;;;;;;17.25;100.00;99983.20;102759;1286;139837;-58
2022/08/08 04:35:42;;;;;;;9.60;8.60;;;;;;;17.26;100.00;99978.19;102858;1289;24360;-58
2022/08/08 04:38:18;;;;;;;12.80;9.20;;;;;;;17.26;100.00;99982.92;102940;1287;138318;-58
2022/08/08 04:40:48;;;;;;;13.00;9.20;;;;;;;17.25;100.00;99980.95;103257;1287;22628;-59
2022/08/08 04:43:21;;;;;;;13.60;9.10;;;;;;;17.25;100.00;99984.36;101924;1284;1749493;-59
2022/08/08 04:46:10;;;;;;;13.70;9.00;;;;;;;17.25;100.00;99987.33;103637;1280;25373;-59
2022/08/08 04:48:40;;;;;;;14.00;9.00;;;;;;;17.25;100.00;99987.02;103755;1277;22718;-59
2022/08/08 04:51:08;;;;;;;13.60;8.80;;;;;;;17.25;100.00;99989.38;103663;1281;138293;-59
2022/08/08 04:53:36;;;;;;;11.00;8.10;;;;;;;17.27;100.00;99988.91;103763;1280;23027;-57
2022/08/08 04:56:23;;;;;;;12.10;8.60;;;;;;;17.28;100.00;99990.77;103754;1278;138580;-58
2022/08/08 04:58:50;;;;;;;14.30;9.60;;;;;;;17.30;100.00;99990.38;103814;1283;22608;-59
2022/08/08 05:01:17;;;;;;;9.90;8.50;;;;;;;17.32;100.00;99988.30;103792;1278;25327;-58
2022/08/08 05:03:46;;;;;;;12.90;8.80;;;;;;;17.34;100.00;99987.67;103609;1277;139801;-58
2022/08/08 05:06:36;;;;;;;18.40;9.30;;;;;;;17.37;100.00;99985.77;103690;1278;26174;-58
2022/08/08 05:09:06;;;;;;;13.30;9.00;;;;;;;17.38;100.00;99986.70;107155;1277;139510;-58
2022/08/08 05:11:34;;;;;;;16.40;9.70;;;;;;;17.40;100.00;99985.54;107111;1278;24557;-59
2022/08/08 05:14:07;;;;;;;11.70;9.50;;;;;;;17.42;100.00;99985.02;107152;1281;139443;-58
2022/08/08 05:16:38;;;;;;;13.40;9.80;;;;;;;17.42;100.00;99987.78;107334;1278;23712;-58
2022/08/08 05:19:25;;;;;;;13.60;10.30;;;;;;;17.42;100.00;99991.85;107282;1277;22432;-58
2022/08/08 05:22:13;;;;;;;16.00;9.20;;;;;;;17.43;100.00;99994.75;107241;1278;23307;-58
2022/08/08 05:24:45;;;;;;;17.30;9.50;;;;;;;17.47;100.00;100001.64;107092;1278;22522;-58
2022/08/08 05:27:15;;;;;;;14.20;9.30;;;;;;;17.48;100.00;100001.57;107640;1278;139585;-59
2022/08/08 05:29:43;;;;;;;16.10;10.20;;;;;;;17.48;100.00;100004.99;108063;1277;23081;-58
2022/08/08 05:32:16;;;;;;;17.60;9.90;;;;;;;17.50;100.00;100006.91;107053;1277;138635;-59
2022/08/08 05:34:48;;;;;;;17.70;9.70;;;;;;;17.53;100.00;100008.20;107865;1281;22437;-59
2022/08/08 05:37:23;;;;;;;22.20;10.40;;;;;;;17.56;100.00;100013.52;108915;1277;22420;-59
2022/08/08 05:40:10;;;;;;;12.00;9.30;;;;;;;17.59;100.00;100014.52;107212;1277;22734;-59
2022/08/08 05:42:42;;;;;;;12.30;11.00;;;;;;;17.62;100.00;100020.60;104561;1278;23068;-56
2022/08/08 05:45:12;;;;;;;13.70;9.10;;;;;;;17.62;100.00;100023.41;108828;1279;139046;-58
2022/08/08 05:47:59;;;;;;;13.20;10.20;;;;;;;17.64;100.00;100028.99;109009;1278;23436;-58
2022/08/08 05:50:35;;;;;;;11.70;10.00;;;;;;;17.65;100.00;100027.66;109062;1277;138878;-59
2022/08/08 05:53:02;;;;;;;15.70;10.40;;;;;;;17.65;100.00;100028.27;108889;1279;24486;-58
2022/08/08 05:55:49;;;;;;;15.40;10.70;;;;;;;17.61;100.00;100025.96;108879;1278;138732;-58
2022/08/08 05:58:38;;;;;;;13.00;10.40;;;;;;;17.60;100.00;100026.32;109012;1277;22667;-58
2022/08/08 06:01:23;;;;;;;16.50;10.30;;;;;;;17.58;100.00;100027.06;108924;1277;22438;-58
2022/08/08 06:04:10;;;;;;;16.20;10.50;;;;;;;17.58;100.00;100028.38;109012;1277;23619;-59
2022/08/08 06:06:49;;;;;;;13.90;10.70;;;;;;;17.58;100.00;100022.70;108982;1277;22444;-59
2022/08/08 06:09:16;;;;;;;11.80;10.10;;;;;;;17.58;100.00;100024.52;109213;1274;140080;-59
2022/08/08 06:12:05;;;;;;;15.00;10.50;;;;;;;17.59;100.00;100028.55;109294;1274;22407;-59
2022/08/08 06:14:33;;;;;;;19.30;11.30;;;;;;;17.59;100.00;100034.53;109211;1274;139381;-59
2022/08/08 06:17:01;;;;;;;14.90;11.00;;;;;;;17.59;100.00;100032.73;109368;1273;23283;-59
2022/08/08 06:19:48;;;;;;;12.00;10.70;;;;;;;17.60;100.00;100029.89;109187;1274;138695;-59
2022/08/08 06:22:15;;;;;;;14.60;11.20;;;;;;;17.62;100.00;100033.05;109213;1274;22468;-59
2022/08/08 06:25:01;;;;;;;15.70;12.10;;;;;;;17.64;100.00;100030.48;109482;1273;22443;-59
2022/08/08 06:27:37;;;;;;;12.50;11.00;;;;;;;17.65;100.00;100033.05;109172;1274;138881;-58
2022/08/08 06:30:06;;;;;;;14.20;11.50;;;;;;;17.65;100.00;100029.14;109375;1274;22433;-58
2022/08/08 06:32:55;;;;;;;14.30;10.80;;;;;;;17.65;100.00;100028.76;109079;1276;138792;-59
2022/08/08 06:35:23;;;;;;;15.70;11.40;;;;;;;17.66;100.00;100034.42;108997;1277;22264;-58
2022/08/08 06:38:11;;;;;;;17.10;10.70;;;;;;;17.64;100.00;100034.94;109211;1274;138833;-58
2022/08/08 06:40:42;;;;;;;14.10;11.20;;;;;;;17.63;100.00;100039.49;108605;1275;22488;-59
2022/08/08 06:43:14;;;;;;;13.80;9.70;;;;;;;17.62;100.00;100041.82;107541;1274;23500;-58
2022/08/08 06:45:52;;;;;;;12.80;10.50;;;;;;;17.62;100.00;100047.84;107239;1274;138912;-58
2022/08/08 06:48:20;;;;;;;14.40;10.50;;;;;;;17.63;100.00;100047.93;107311;1274;23429;-58
2022/08/08 06:50:52;;;;;;;12.80;10.80;;;;;;;17.65;100.00;100052.45;107348;1274;140076;-58
2022/08/08 06:53:20;;;;;;;13.40;11.20;;;;;;;17.65;100.00;100053.27;107242;1274;22487;-58
2022/08/08 06:55:51;;;;;;;12.30;11.10;;;;;;;17.66;100.00;100053.22;107389;1274;139924;-58
2022/08/08 06:58:29;;;;;;;15.20;10.00;;;;;;;17.69;100.00;100052.05;107504;1274;22479;-59
2022/08/08 07:01:01;;;;;;;13.40;11.20;;;;;;;17.71;100.00;100058.09;107439;1274;22448;-59
2022/08/08 07:03:55;;;;;;;14.90;10.40;;;;;;;17.72;100.00;100060.29;107352;1274;138952;-59
2022/08/08 07:06:49;;;;;;;13.70;11.30;;;;;;;17.75;100.00;100053.45;107493;1275;24534;-58
2022/08/08 07:09:18;;;;;;;16.80;11.10;;;;;;;17.76;100.00;100055.81;107391;1274;140679;-59
2022/08/08 07:11:49;;;;;;;12.70;10.30;;;;;;;17.77;100.00;100057.14;107555;1275;22615;-59
2022/08/08 07:14:23;;;;;;;13.70;12.00;;;;;;;17.79;100.00;100058.21;107475;1274;139655;-59
2022/08/08 07:16:55;;;;;;;13.10;11.70;;;;;;;17.80;100.00;100056.55;107374;1275;24563;-59
2022/08/08 07:19:54;;;;;;;14.20;11.70;;;;;;;17.83;100.00;100059.67;107440;1274;22464;-59
2022/08/08 07:22:39;;;;;;;12.10;10.20;;;;;;;17.83;100.00;100060.48;107330;1274;22417;-59
2022/08/08 07:25:07;;;;;;;12.90;11.20;;;;;;;17.84;100.00;100063.79;107351;1274;22413;-59
2022/08/08 07:27:44;;;;;;;13.30;11.80;;;;;;;17.85;100.00;100067.25;107428;1274;138799;-59
2022/08/08 07:30:29;;;;;;;14.30;10.50;;;;;;;17.86;100.00;100069.77;107441;1274;22408;-59
2022/08/08 07:32:56;;;;;;;15.50;11.10;;;;;;;17.88;100.00;100067.98;107437;1274;139850;-59
2022/08/08 07:35:27;;;;;;;15.70;10.80;;;;;;;17.89;100.00;100066.54;107568;1274;22438;-59
2022/08/08 07:37:57;;;;;;;17.90;15.00;;;;;;;17.90;100.00;100069.66;107443;1274;138739;-58
2022/08/08 07:40:47;;;;;;;21.70;18.50;;;;;;;17.93;100.00;100071.50;107686;1274;23951;-65
2022/08/08 07:43:17;;;;;;;19.50;17.50;;;;;;;17.98;100.00;100070.46;107500;1274;22483;-63
2022/08/08 07:46:04;;;;;;;15.70;14.10;;;;;;;18.01;100.00;100067.23;107460;1274;22399;-65
2022/08/08 07:48:53;;;;;;;12.60;11.30;;;;;;;18.05;100.00;100068.83;107534;1274;22960;-64
2022/08/08 07:51:20;;;;;;;16.20;12.80;;;;;;;18.06;100.00;100072.56;107390;1274;140344;-65
2022/08/08 07:54:23;;;;;;;11.90;10.50;;;;;;;18.09;100.00;100068.63;107530;1274;23576;-64
2022/08/08 07:57:15;;;;;;;12.30;11.00;;;;;;;18.13;100.00;100067.91;107469;1274;138417;-65
2022/08/08 08:00:03;;;;;;;13.50;10.50;;;;;;;18.18;100.00;100069.49;107524;1274;23633;-65
2022/08/08 08:03:09;;;;;;;12.20;10.80;;;;;;;18.22;99.99;100073.36;107318;1273;140228;-65
2022/08/08 08:05:52;;;;;;;14.90;13.30;;;;;;;18.25;99.86;100075.80;107476;1274;22435;-65
2022/08/08 08:08:31;;;;;;;19.80;17.00;;;;;;;18.27;99.61;100076.90;107483;1274;140820;-65
2022/08/08 08:10:59;;;;;;;16.70;14.80;;;;;;;18.29;99.40;100077.04;107277;1277;22392;-65
2022/08/08 08:13:32;;;;;;;16.10;13.90;;;;;;;18.31;99.37;100077.22;107598;1274;22496;-64
2022/08/08 08:16:23;;;;;;;13.80;12.40;;;;;;;18.35;99.32;100081.19;107436;1274;23161;-65
2022/08/08 08:18:59;;;;;;;15.80;14.10;;;;;;;18.36;98.91;100079.70;107503;1274;23918;-65
2022/08/08 08:21:36;;;;;;;15.70;13.60;;;;;;;18.38;98.82;100085.08;107387;1274;140044;-65
2022/08/08 08:24:27;;;;;;;;;;;;;;;18.41;98.82;100088.80;107547;1274;23285;-65
2022/08/08 08:27:02;;;;;;;23.20;18.60;;;;;;;18.42;98.67;100086.48;107543;1273;125081;-66
2022/08/08 08:29:30;;;;;;;20.30;18.00;;;;;;;18.41;98.73;100087.59;107529;1274;22773;-66
2022/08/08 08:31:57;;;;;;;19.20;17.30;;;;;;;18.43;98.38;100090.75;107441;1274;138618;-64
2022/08/08 08:34:29;;;;;;;15.50;13.30;;;;;;;18.44;98.38;100090.75;107491;1274;22447;-65
2022/08/08 08:37:02;;;;;;;13.70;12.30;;;;;;;18.45;98.27;100091.45;107452;1274;22574;-64
2022/08/08 08:39:36;;;;;;;14.90;12.90;;;;;;;18.43;98.20;100082.92;107404;1274;139910;-59
2022/08/08 08:42:24;;;;;;;16.70;12.00;;;;;;;18.44;97.89;100090.81;107583;1274;22464;-59
2022/08/08 08:45:05;;;;;;;15.80;12.30;;;;;;;18.41;97.98;100083.11;107304;1274;139852;-59
2022/08/08 08:47:51;;;;;;;15.90;13.50;;;;;;;18.40;98.02;100084.17;107543;1274;22678;-58
2022/08/08 08:50:24;;;;;;;14.80;12.00;;;;;;;18.41;98.12;100083.98;107445;1274;139007;-58
2022/08/08 08:53:04;;;;;;;15.90;11.60;;;;;;;18.43;98.31;100086.13;107470;1274;22527;-59
2022/08/08 08:55:56;;;;;;;12.10;10.00;;;;;;;18.48;98.55;100086.48;107410;1274;138722;-59
2022/08/08 08:58:31;;;;;;;14.70;10.00;;;;;;;18.53;98.45;100084.70;107493;1274;22485;-59
2022/08/08 09:00:59;;;;;;;13.20;9.10;;;;;;;18.60;98.36;100080.66;107422;1274;22475;-58
2022/08/08 09:03:44;;;;;;;12.90;10.40;;;;;;;18.68;98.03;100083.93;107476;1274;140185;-59
2022/08/08 09:06:24;;;;;;;13.70;10.00;;;;;;;18.76;97.83;100085.24;107532;1273;22429;-58
2022/08/08 09:09:03;;;;;;;13.00;10.10;;;;;;;18.85;97.29;100093.19;107372;1274;139281;-58
2022/08/08 09:11:34;;;;;;;13.00;10.20;;;;;;;18.89;96.91;100094.02;107569;1274;22381;-59
2022/08/08 09:14:22;;;;;;;17.40;9.60;;;;;;;18.93;96.43;100093.27;107425;1274;140283;-58
2022/08/08 09:16:54;;;;;;;11.90;10.00;;;;;;;18.98;96.36;100095.40;107525;1274;22394;-58
2022/08/08 09:19:21;;;;;;;10.50;9.40;;;;;;;19.03;96.04;100086.39;107625;1274;22478;-58
2022/08/08 09:22:08;;;;;;;10.40;8.80;;;;;;;19.10;95.67;100083.56;107578;1274;22425;-58
2022/08/08 09:24:35;;;;;;;10.90;8.90;;;;;;;19.17;95.01;100083.77;107463;1274;22610;-58
2022/08/08 09:27:11;;;;;;;14.00;10.10;;;;;;;19.22;94.52;100083.87;107237;1274;139302;-58
2022/08/08 09:30:00;;;;;;;11.90;9.80;;;;;;;19.28;94.24;100089.80;107560;1274;23171;-59
2022/08/08 09:32:43;;;;;;;12.50;11.00;;;;;;;19.29;93.80;100087.91;107429;1274;139687;-58
2022/08/08 09:35:30;;;;;;;15.30;12.00;;;;;;;19.27;93.17;100086.44;107578;1274;23655;-58
2022/08/08 09:38:02;;;;;;;16.90;12.60;;;;;;;19.24;93.18;100088.41;107271;1272;139818;-60
2022/08/08 09:40:34;;;;;;;14.20;11.20;;;;;;;19.23;93.15;100084.58;105482;1275;26551;-63
2022/08/08 09:43:29;;;;;;;17.10;12.70;;;;;;;19.24;93.25;100089.02;104089;1274;24227;-62
2022/08/08 09:46:16;;;;;;;14.00;11.50;;;;;;;19.23;93.33;100086.05;104075;1274;22694;-62
2022/08/08 09:48:57;;;;;;;17.80;12.40;;;;;;;19.25;93.35;100084.32;103943;1274;22668;-63
2022/08/08 09:51:52;;;;;;;12.70;11.40;;;;;;;19.27;93.40;100085.99;103992;1274;139265;-65
2022/08/08 09:54:43;;;;;;;14.60;12.60;;;;;;;19.32;93.57;100088.80;104074;1274;22589;-66
2022/08/08 09:57:14;;;;;;;17.50;12.60;;;;;;;19.36;93.41;100091.02;103989;1274;139273;-62
2022/08/08 09:59:43;;;;;;;14.70;13.20;;;;;;;19.39;93.00;100097.29;104053;1274;23846;-62
2022/08/08 10:02:40;;;;;;;19.10;14.10;;;;;;;19.40;92.57;100096.55;104078;1274;138543;-63
2022/08/08 10:05:12;;;;;;;18.10;14.60;;;;;;;19.41;92.53;100095.42;107583;1274;22428;-62
2022/08/08 10:07:59;;;;;;;14.10;12.70;;;;;;;19.42;92.20;100098.17;107487;1274;140383;-61
2022/08/08 10:10:38;;;;;;;14.50;11.90;;;;;;;19.42;91.86;100095.48;107675;1274;24301;-64
2022/08/08 10:13:25;;;;;;;20.10;15.50;;;;;;;19.38;91.68;100097.75;107469;1274;24974;-63
2022/08/08 10:16:01;;;;;;;21.40;14.50;;;;;;;19.38;91.85;100099.73;107572;1274;138899;-63
2022/08/08 10:18:32;;;;;;;15.30;12.90;;;;;;;19.39;91.63;100103.09;107562;1274;22482;-66
2022/08/08 10:21:07;;;;;;;18.10;11.40;;;;;;;19.39;91.60;100105.46;107446;1274;138545;-64
2022/08/08 10:23:52;;;;;;;15.10;10.50;;;;;;;19.40;91.50;100105.16;107423;1274;23259;-62
2022/08/08 10:26:28;;;;;;;12.20;11.00;;;;;;;19.44;91.40;100103.67;107551;1274;139078;-62
2022/08/08 10:29:15;;;;;;;13.30;11.30;;;;;;;19.49;91.47;100102.92;107589;1274;23185;-62
2022/08/08 10:34:35;;;;;;;11.00;9.90;;;;;;;19.58;91.04;100101.31;107591;1274;22434;-60
2022/08/08 10:37:03;;;;;;;10.40;9.40;;;;;;;19.64;90.59;100099.27;107519;1273;22427;-60
2022/08/08 10:39:31;;;;;;;13.00;9.80;;;;;;;19.67;90.18;100096.77;106717;1274;139116;-64
2022/08/08 10:42:18;;;;;;;13.80;10.60;;;;;;;19.75;89.76;100099.84;104182;1274;25034;-64
2022/08/08 10:44:46;;;;;;;10.20;9.00;;;;;;;19.80;89.34;100100.19;104216;1274;140232;-64
2022/08/08 10:47:17;;;;;;;10.70;9.60;;;;;;;19.81;88.91;100098.33;104052;1274;27505;-64
2022/08/08 10:49:51;;;;;;;11.10;9.20;;;;;;;19.81;88.48;100092.63;103839;1274;138618;-63
2022/08/08 10:52:36;;;;;;;9.90;8.90;;;;;;;19.84;88.37;100091.82;104072;1274;24733;-65
2022/08/08 10:55:08;;;;;;;12.00;8.40;;;;;;;19.86;88.31;100090.84;104039;1274;22766;-64
2022/08/08 10:57:45;;;;;;;10.30;8.70;;;;;;;19.84;87.75;100088.94;107458;1274;141715;-65
2022/08/08 11:00:21;;;;;;;12.10;8.80;;;;;;;19.83;87.79;100092.67;107598;1274;22456;-66
2022/08/08 11:02:49;;;;;;;10.90;8.70;;;;;;;19.81;87.97;100089.05;107565;1273;139792;-65
2022/08/08 11:05:15;;;;;;;12.10;9.80;;;;;;;19.84;88.14;100085.18;107646;1274;22436;-66
2022/08/08 11:07:48;;;;;;;10.10;8.70;;;;;;;19.86;88.02;100084.31;107451;1274;139789;-64
2022/08/08 11:10:35;;;;;;;9.40;8.30;;;;;;;19.88;87.87;100084.83;107677;1273;22617;-65
2022/08/08 11:13:02;;;;;;;9.90;8.50;;;;;;;19.89;87.66;100087.41;107392;1274;22937;-65
2022/08/08 11:15:49;;;;;;;11.10;9.00;;;;;;;19.90;87.54;100090.77;107515;1274;139472;-65
2022/08/08 11:18:29;;;;;;;10.70;9.30;;;;;;;19.89;87.72;100086.70;107666;1274;22716;-65
2022/08/08 11:20:56;;;;;;;11.00;9.00;;;;;;;19.88;87.54;100082.90;107500;1274;138870;-64
2022/08/08 11:23:24;;;;;;;17.70;9.50;;;;;;;19.83;87.33;100086.96;107559;1274;25204;-64
2022/08/08 11:25:57;;;;;;;10.60;9.10;;;;;;;19.78;87.22;100081.63;107411;1274;140476;-65
2022/08/08 11:28:24;;;;;;;11.50;9.20;;;;;;;19.78;87.46;100081.63;107494;1274;24441;-63
2022/08/08 11:30:58;;;;;;;10.90;9.80;;;;;;;19.80;87.59;100083.31;107609;1274;22645;-64
2022/08/08 11:33:26;;;;;;;10.40;9.30;;;;;;;19.85;87.78;100079.70;107503;1274;138605;-65
2022/08/08 11:36:13;;;;;;;11.40;9.50;;;;;;;19.90;87.75;100081.14;107621;1274;22416;-65
2022/08/08 11:38:41;;;;;;;12.30;9.30;;;;;;;19.95;87.81;100077.42;107433;1274;139392;-65
2022/08/08 11:41:22;;;;;;;9.60;8.70;;;;;;;20.00;87.68;100077.79;107685;1274;22444;-58
2022/08/08 11:43:50;;;;;;;13.10;9.10;;;;;;;20.03;87.44;100070.14;107501;1274;140125;-60
2022/08/08 11:46:20;;;;;;;10.00;9.00;;;;;;;20.06;87.24;100065.59;107490;1274;22529;-59
2022/08/08 11:48:50;;;;;;;10.40;9.40;;;;;;;20.12;87.09;100060.34;107637;1274;22443;-60
2022/08/08 11:51:17;;;;;;;9.80;8.80;;;;;;;20.18;86.44;100063.33;107335;1274;140116;-58
2022/08/08 11:54:06;;;;;;;11.40;8.60;;;;;;;20.22;86.26;100064.71;107583;1274;22501;-58
2022/08/08 11:56:52;;;;;;;10.10;9.10;;;;;;;20.26;85.95;100063.52;107507;1274;138404;-58
2022/08/08 11:59:31;;;;;;;11.70;8.60;;;;;;;20.30;85.79;100060.97;107557;1274;22883;-58
2022/08/08 12:02:18;;;;;;;12.30;8.20;;;;;;;20.35;85.92;100059.08;107507;1274;140341;-58
2022/08/08 12:05:08;;;;;;;9.60;8.40;;;;;;;20.43;85.83;100061.36;107515;1274;22539;-59
2022/08/08 12:07:49;;;;;;;14.00;8.60;;;;;;;20.49;85.31;100056.26;107675;1273;23078;-59
2022/08/08 12:10:19;;;;;;;10.70;8.40;;;;;;;20.55;84.88;100057.61;107589;1274;22745;-59
2022/08/08 12:12:46;;;;;;;9.60;7.40;;;;;;;20.58;84.41;100057.67;107560;1274;22433;-59
2022/08/08 12:15:25;;;;;;;11.30;8.90;;;;;;;20.63;84.22;100058.20;107494;1274;138766;-59
2022/08/08 12:17:52;;;;;;;12.10;8.40;;;;;;;20.68;84.20;100056.43;107631;1273;22372;-59
2022/08/08 12:20:20;;;;;;;9.80;8.10;;;;;;;20.73;84.00;100052.56;107482;1274;138601;-59